sensor_id;sensor_type;location;lat;lon;timestamp;P1;P2;P0
43479;PMS5003;29067;35.492;-97.520;2023-01-29T00:01:20;3;2;
43479;PMS5003;29067;35.492;-97.520;2023-01-29T00:03:49;4;4;
43479;PMS5003;29067;35.492;-97.520;2023-01-29T00:06:17;3;3;
43479;PMS5003;29067;35.492;-97.520;2023-01-29T00:08:46;3;3;
43479;PMS5003;29067;35.492;-97.520;2023-01-29T00:11:14;4;4;
43479;PMS5003;29067;35.492;-97.520;2023-01-29T00:13:41;3;3;
43479;PMS5003;29067;35.492;-97.520;2023-01-29T00:16:10;4;3;
43479;PMS5003;29067;35.492;-97.520;2023-01-29T00:18:38;4;4;
43479;PMS5003;29067;35.492;-97.520;2023-01-29T00:21:08;4;4;
43479;PMS5003;29067;35.492;-97.520;2023-01-29T00:23:36;5;5;
43479;PMS5003;29067;35.492;-97.520;2023-01-29T00:26:05;4;3;
43479;PMS5003;29067;35.492;-97.520;2023-01-29T00:28:34;4;4;
43479;PMS5003;29067;35.492;-97.520;2023-01-29T00:31:09;5;5;
43479;PMS5003;29067;35.492;-97.520;2023-01-29T00:33:38;5;5;
43479;PMS5003;29067;35.492;-97.520;2023-01-29T00:36:07;4;4;
43479;PMS5003;29067;35.492;-97.520;2023-01-29T00:38:37;4;4;
43479;PMS5003;29067;35.492;-97.520;2023-01-29T00:41:06;5;4;
43479;PMS5003;29067;35.492;-97.520;2023-01-29T00:43:35;5;5;
43479;PMS5003;29067;35.492;-97.520;2023-01-29T00:46:03;5;5;
43479;PMS5003;29067;35.492;-97.520;2023-01-29T00:48:38;5;5;
43479;PMS5003;29067;35.492;-97.520;2023-01-29T00:51:16;7;7;
43479;PMS5003;29067;35.492;-97.520;2023-01-29T00:53:49;5;5;
43479;PMS5003;29067;35.492;-97.520;2023-01-29T00:56:17;5;4;
43479;PMS5003;29067;35.492;-97.520;2023-01-29T00:58:46;7;6;
43479;PMS5003;29067;35.492;-97.520;2023-01-29T01:01:14;4;4;
43479;PMS5003;29067;35.492;-97.520;2023-01-29T01:03:42;5;5;
43479;PMS5003;29067;35.492;-97.520;2023-01-29T01:06:11;6;6;
43479;PMS5003;29067;35.492;-97.520;2023-01-29T01:08:39;6;6;
43479;PMS5003;29067;35.492;-97.520;2023-01-29T01:11:08;7;6;
43479;PMS5003;29067;35.492;-97.520;2023-01-29T01:13:36;7;6;
43479;PMS5003;29067;35.492;-97.520;2023-01-29T01:16:07;6;6;
43479;PMS5003;29067;35.492;-97.520;2023-01-29T01:18:36;7;7;
43479;PMS5003;29067;35.492;-97.520;2023-01-29T01:21:05;6;5;
43479;PMS5003;29067;35.492;-97.520;2023-01-29T01:23:34;5;5;
43479;PMS5003;29067;35.492;-97.520;2023-01-29T01:26:07;6;6;
43479;PMS5003;29067;35.492;-97.520;2023-01-29T01:28:35;7;7;
43479;PMS5003;29067;35.492;-97.520;2023-01-29T01:31:08;4;4;
43479;PMS5003;29067;35.492;-97.520;2023-01-29T01:33:37;6;6;
43479;PMS5003;29067;35.492;-97.520;2023-01-29T01:36:06;6;6;
43479;PMS5003;29067;35.492;-97.520;2023-01-29T01:38:35;6;6;
43479;PMS5003;29067;35.492;-97.520;2023-01-29T01:41:03;6;6;
43479;PMS5003;29067;35.492;-97.520;2023-01-29T01:43:52;8;7;
43479;PMS5003;29067;35.492;-97.520;2023-01-29T01:46:22;8;8;
43479;PMS5003;29067;35.492;-97.520;2023-01-29T01:48:51;6;6;
43479;PMS5003;29067;35.492;-97.520;2023-01-29T01:51:28;6;4;
43479;PMS5003;29067;35.492;-97.520;2023-01-29T01:54:00;6;6;
43479;PMS5003;29067;35.492;-97.520;2023-01-29T01:56:32;4;4;
43479;PMS5003;29067;35.492;-97.520;2023-01-29T01:59:05;5;5;
43479;PMS5003;29067;35.492;-97.520;2023-01-29T02:01:36;6;6;
43479;PMS5003;29067;35.492;-97.520;2023-01-29T02:04:07;7;6;
43479;PMS5003;29067;35.492;-97.520;2023-01-29T02:06:39;5;5;
43479;PMS5003;29067;35.492;-97.520;2023-01-29T02:09:08;4;4;
43479;PMS5003;29067;35.492;-97.520;2023-01-29T02:11:41;5;5;
43479;PMS5003;29067;35.492;-97.520;2023-01-29T02:14:09;5;5;
43479;PMS5003;29067;35.492;-97.520;2023-01-29T02:16:38;7;7;
43479;PMS5003;29067;35.492;-97.520;2023-01-29T02:19:10;14;13;
43479;PMS5003;29067;35.492;-97.520;2023-01-29T02:21:49;14;14;
43479;PMS5003;29067;35.492;-97.520;2023-01-29T02:24:37;11;10;
43479;PMS5003;29067;35.492;-97.520;2023-01-29T02:27:26;13;13;
43479;PMS5003;29067;35.492;-97.520;2023-01-29T02:30:08;11;10;
43479;PMS5003;29067;35.492;-97.520;2023-01-29T02:32:44;7;7;
43479;PMS5003;29067;35.492;-97.520;2023-01-29T02:35:25;10;10;
43479;PMS5003;29067;35.492;-97.520;2023-01-29T02:38:01;9;9;
43479;PMS5003;29067;35.492;-97.520;2023-01-29T02:40:39;6;5;
43479;PMS5003;29067;35.492;-97.520;2023-01-29T02:43:15;7;7;
43479;PMS5003;29067;35.492;-97.520;2023-01-29T02:45:57;7;7;
43479;PMS5003;29067;35.492;-97.520;2023-01-29T02:48:34;6;6;
43479;PMS5003;29067;35.492;-97.520;2023-01-29T02:51:11;5;5;
43479;PMS5003;29067;35.492;-97.520;2023-01-29T02:53:45;7;7;
43479;PMS5003;29067;35.492;-97.520;2023-01-29T02:56:25;7;6;
43479;PMS5003;29067;35.492;-97.520;2023-01-29T02:59:00;7;6;
43479;PMS5003;29067;35.492;-97.520;2023-01-29T03:01:39;7;6;
43479;PMS5003;29067;35.492;-97.520;2023-01-29T03:04:23;7;6;
43479;PMS5003;29067;35.492;-97.520;2023-01-29T03:06:56;9;8;
43479;PMS5003;29067;35.492;-97.520;2023-01-29T03:09:28;8;7;
43479;PMS5003;29067;35.492;-97.520;2023-01-29T03:12:05;8;8;
43479;PMS5003;29067;35.492;-97.520;2023-01-29T03:14:39;7;7;
43479;PMS5003;29067;35.492;-97.520;2023-01-29T03:17:10;8;7;
43479;PMS5003;29067;35.492;-97.520;2023-01-29T03:19:41;11;8;
43479;PMS5003;29067;35.492;-97.520;2023-01-29T03:22:15;8;8;
43479;PMS5003;29067;35.492;-97.520;2023-01-29T03:24:47;8;8;
43479;PMS5003;29067;35.492;-97.520;2023-01-29T03:27:22;7;7;
43479;PMS5003;29067;35.492;-97.520;2023-01-29T03:29:55;14;14;
43479;PMS5003;29067;35.492;-97.520;2023-01-29T03:32:24;9;9;
43479;PMS5003;29067;35.492;-97.520;2023-01-29T03:34:57;9;8;
43479;PMS5003;29067;35.492;-97.520;2023-01-29T03:37:28;7;7;
43479;PMS5003;29067;35.492;-97.520;2023-01-29T03:40:00;6;6;
43479;PMS5003;29067;35.492;-97.520;2023-01-29T03:42:31;6;6;
43479;PMS5003;29067;35.492;-97.520;2023-01-29T03:45:12;6;5;
43479;PMS5003;29067;35.492;-97.520;2023-01-29T03:47:47;5;5;
43479;PMS5003;29067;35.492;-97.520;2023-01-29T03:50:28;5;5;
43479;PMS5003;29067;35.492;-97.520;2023-01-29T03:53:08;8;8;
43479;PMS5003;29067;35.492;-97.520;2023-01-29T03:55:48;10;10;
43479;PMS5003;29067;35.492;-97.520;2023-01-29T03:58:24;13;12;
43479;PMS5003;29067;35.492;-97.520;2023-01-29T04:01:01;18;13;
43479;PMS5003;29067;35.492;-97.520;2023-01-29T04:03:36;32;28;
43479;PMS5003;29067;35.492;-97.520;2023-01-29T04:06:08;106;102;
43479;PMS5003;29067;35.492;-97.520;2023-01-29T04:08:44;49;45;
43479;PMS5003;29067;35.492;-97.520;2023-01-29T04:11:19;15;14;
43479;PMS5003;29067;35.492;-97.520;2023-01-29T04:13:49;17;17;
43479;PMS5003;29067;35.492;-97.520;2023-01-29T04:16:25;18;16;
43479;PMS5003;29067;35.492;-97.520;2023-01-29T04:18:58;20;16;
43479;PMS5003;29067;35.492;-97.520;2023-01-29T04:21:26;19;17;
43479;PMS5003;29067;35.492;-97.520;2023-01-29T04:23:55;18;17;
43479;PMS5003;29067;35.492;-97.520;2023-01-29T04:26:27;18;15;
43479;PMS5003;29067;35.492;-97.520;2023-01-29T04:29:12;17;17;
43479;PMS5003;29067;35.492;-97.520;2023-01-29T04:31:49;22;20;
43479;PMS5003;29067;35.492;-97.520;2023-01-29T04:34:27;24;19;
43479;PMS5003;29067;35.492;-97.520;2023-01-29T04:37:07;16;16;
43479;PMS5003;29067;35.492;-97.520;2023-01-29T04:39:44;22;20;
43479;PMS5003;29067;35.492;-97.520;2023-01-29T04:42:20;18;17;
43479;PMS5003;29067;35.492;-97.520;2023-01-29T04:44:57;21;19;
43479;PMS5003;29067;35.492;-97.520;2023-01-29T04:47:31;19;18;
43479;PMS5003;29067;35.492;-97.520;2023-01-29T04:50:10;26;21;
43479;PMS5003;29067;35.492;-97.520;2023-01-29T04:52:44;26;23;
43479;PMS5003;29067;35.492;-97.520;2023-01-29T04:55:24;25;22;
43479;PMS5003;29067;35.492;-97.520;2023-01-29T04:58:02;21;18;
43479;PMS5003;29067;35.492;-97.520;2023-01-29T05:00:34;27;23;
43479;PMS5003;29067;35.492;-97.520;2023-01-29T05:03:13;27;25;
43479;PMS5003;29067;35.492;-97.520;2023-01-29T05:05:42;25;22;
43479;PMS5003;29067;35.492;-97.520;2023-01-29T05:08:20;24;22;
43479;PMS5003;29067;35.492;-97.520;2023-01-29T05:10:51;21;21;
43479;PMS5003;29067;35.492;-97.520;2023-01-29T05:13:27;22;22;
43479;PMS5003;29067;35.492;-97.520;2023-01-29T05:15:59;22;21;
43479;PMS5003;29067;35.492;-97.520;2023-01-29T05:18:30;30;26;
43479;PMS5003;29067;35.492;-97.520;2023-01-29T05:21:01;21;19;
43479;PMS5003;29067;35.492;-97.520;2023-01-29T05:23:39;22;22;
43479;PMS5003;29067;35.492;-97.520;2023-01-29T05:26:07;33;25;
43479;PMS5003;29067;35.492;-97.520;2023-01-29T05:28:36;21;20;
43479;PMS5003;29067;35.492;-97.520;2023-01-29T05:31:09;25;24;
43479;PMS5003;29067;35.492;-97.520;2023-01-29T05:33:42;28;24;
43479;PMS5003;29067;35.492;-97.520;2023-01-29T05:36:10;23;21;
43479;PMS5003;29067;35.492;-97.520;2023-01-29T05:38:39;28;24;
43479;PMS5003;29067;35.492;-97.520;2023-01-29T05:41:12;26;25;
43479;PMS5003;29067;35.492;-97.520;2023-01-29T05:43:41;28;21;
43479;PMS5003;29067;35.492;-97.520;2023-01-29T05:46:09;29;24;
43479;PMS5003;29067;35.492;-97.520;2023-01-29T05:48:37;21;19;
43479;PMS5003;29067;35.492;-97.520;2023-01-29T05:51:05;30;26;
43479;PMS5003;29067;35.492;-97.520;2023-01-29T05:53:33;25;20;
43479;PMS5003;29067;35.492;-97.520;2023-01-29T05:56:01;25;23;
43479;PMS5003;29067;35.492;-97.520;2023-01-29T05:58:30;23;21;
43479;PMS5003;29067;35.492;-97.520;2023-01-29T06:01:06;26;23;
43479;PMS5003;29067;35.492;-97.520;2023-01-29T06:03:36;21;19;
43479;PMS5003;29067;35.492;-97.520;2023-01-29T06:06:11;20;20;
43479;PMS5003;29067;35.492;-97.520;2023-01-29T06:08:40;25;25;
43479;PMS5003;29067;35.492;-97.520;2023-01-29T06:11:14;25;23;
43479;PMS5003;29067;35.492;-97.520;2023-01-29T06:13:43;24;20;
43479;PMS5003;29067;35.492;-97.520;2023-01-29T06:16:17;28;23;
43479;PMS5003;29067;35.492;-97.520;2023-01-29T06:18:45;25;21;
43479;PMS5003;29067;35.492;-97.520;2023-01-29T06:21:13;27;24;
43479;PMS5003;29067;35.492;-97.520;2023-01-29T06:23:40;33;28;
43479;PMS5003;29067;35.492;-97.520;2023-01-29T06:26:15;20;19;
43479;PMS5003;29067;35.492;-97.520;2023-01-29T06:28:43;22;20;
43479;PMS5003;29067;35.492;-97.520;2023-01-29T06:31:15;22;20;
43479;PMS5003;29067;35.492;-97.520;2023-01-29T06:33:49;31;22;
43479;PMS5003;29067;35.492;-97.520;2023-01-29T06:36:22;20;18;
43479;PMS5003;29067;35.492;-97.520;2023-01-29T06:38:50;26;22;
43479;PMS5003;29067;35.492;-97.520;2023-01-29T06:41:18;26;20;
43479;PMS5003;29067;35.492;-97.520;2023-01-29T06:43:47;31;22;
43479;PMS5003;29067;35.492;-97.520;2023-01-29T06:46:15;20;19;
43479;PMS5003;29067;35.492;-97.520;2023-01-29T06:48:43;28;23;
43479;PMS5003;29067;35.492;-97.520;2023-01-29T06:51:11;22;20;
43479;PMS5003;29067;35.492;-97.520;2023-01-29T06:53:39;21;21;
43479;PMS5003;29067;35.492;-97.520;2023-01-29T06:56:08;18;18;
43479;PMS5003;29067;35.492;-97.520;2023-01-29T06:58:36;26;19;
43479;PMS5003;29067;35.492;-97.520;2023-01-29T07:01:05;25;21;
43479;PMS5003;29067;35.492;-97.520;2023-01-29T07:03:34;22;18;
43479;PMS5003;29067;35.492;-97.520;2023-01-29T07:06:04;18;18;
43479;PMS5003;29067;35.492;-97.520;2023-01-29T07:08:35;18;18;
43479;PMS5003;29067;35.492;-97.520;2023-01-29T07:11:03;21;21;
43479;PMS5003;29067;35.492;-97.520;2023-01-29T07:13:32;22;21;
43479;PMS5003;29067;35.492;-97.520;2023-01-29T07:16:01;26;21;
43479;PMS5003;29067;35.492;-97.520;2023-01-29T07:18:31;25;19;
43479;PMS5003;29067;35.492;-97.520;2023-01-29T07:21:02;26;23;
43479;PMS5003;29067;35.492;-97.520;2023-01-29T07:23:31;23;17;
43479;PMS5003;29067;35.492;-97.520;2023-01-29T07:26:01;15;15;
43479;PMS5003;29067;35.492;-97.520;2023-01-29T07:28:31;25;19;
43479;PMS5003;29067;35.492;-97.520;2023-01-29T07:31:03;23;19;
43479;PMS5003;29067;35.492;-97.520;2023-01-29T07:33:32;22;21;
43479;PMS5003;29067;35.492;-97.520;2023-01-29T07:36:00;21;20;
43479;PMS5003;29067;35.492;-97.520;2023-01-29T07:38:28;26;22;
43479;PMS5003;29067;35.492;-97.520;2023-01-29T07:40:56;22;21;
43479;PMS5003;29067;35.492;-97.520;2023-01-29T07:43:23;18;17;
43479;PMS5003;29067;35.492;-97.520;2023-01-29T07:45:52;18;17;
43479;PMS5003;29067;35.492;-97.520;2023-01-29T07:48:19;18;17;
43479;PMS5003;29067;35.492;-97.520;2023-01-29T07:50:53;29;22;
43479;PMS5003;29067;35.492;-97.520;2023-01-29T07:53:22;22;21;
43479;PMS5003;29067;35.492;-97.520;2023-01-29T07:55:53;24;22;
43479;PMS5003;29067;35.492;-97.520;2023-01-29T07:58:22;33;28;
43479;PMS5003;29067;35.492;-97.520;2023-01-29T08:00:51;27;25;
43479;PMS5003;29067;35.492;-97.520;2023-01-29T08:03:22;16;16;
43479;PMS5003;29067;35.492;-97.520;2023-01-29T08:05:51;18;17;
43479;PMS5003;29067;35.492;-97.520;2023-01-29T08:08:19;17;14;
43479;PMS5003;29067;35.492;-97.520;2023-01-29T08:10:47;14;14;
43479;PMS5003;29067;35.492;-97.520;2023-01-29T08:13:15;19;14;
43479;PMS5003;29067;35.492;-97.520;2023-01-29T08:15:43;21;16;
43479;PMS5003;29067;35.492;-97.520;2023-01-29T08:18:11;21;16;
43479;PMS5003;29067;35.492;-97.520;2023-01-29T08:20:40;19;16;
43479;PMS5003;29067;35.492;-97.520;2023-01-29T08:23:11;19;17;
43479;PMS5003;29067;35.492;-97.520;2023-01-29T08:25:45;16;15;
43479;PMS5003;29067;35.492;-97.520;2023-01-29T08:28:13;28;21;
43479;PMS5003;29067;35.492;-97.520;2023-01-29T08:30:42;19;16;
43479;PMS5003;29067;35.492;-97.520;2023-01-29T08:33:10;19;17;
43479;PMS5003;29067;35.492;-97.520;2023-01-29T08:35:50;19;17;
43479;PMS5003;29067;35.492;-97.520;2023-01-29T08:38:18;23;20;
43479;PMS5003;29067;35.492;-97.520;2023-01-29T08:40:47;19;16;
43479;PMS5003;29067;35.492;-97.520;2023-01-29T08:43:15;27;19;
43479;PMS5003;29067;35.492;-97.520;2023-01-29T08:45:43;28;20;
43479;PMS5003;29067;35.492;-97.520;2023-01-29T08:48:11;17;17;
43479;PMS5003;29067;35.492;-97.520;2023-01-29T08:50:38;28;21;
43479;PMS5003;29067;35.492;-97.520;2023-01-29T08:53:07;26;23;
43479;PMS5003;29067;35.492;-97.520;2023-01-29T08:55:40;21;17;
43479;PMS5003;29067;35.492;-97.520;2023-01-29T08:58:09;27;21;
43479;PMS5003;29067;35.492;-97.520;2023-01-29T09:00:37;27;20;
43479;PMS5003;29067;35.492;-97.520;2023-01-29T09:03:11;23;20;
43479;PMS5003;29067;35.492;-97.520;2023-01-29T09:05:39;34;22;
43479;PMS5003;29067;35.492;-97.520;2023-01-29T09:08:07;19;17;
43479;PMS5003;29067;35.492;-97.520;2023-01-29T09:10:36;30;24;
43479;PMS5003;29067;35.492;-97.520;2023-01-29T09:13:04;22;20;
43479;PMS5003;29067;35.492;-97.520;2023-01-29T09:15:33;24;22;
43479;PMS5003;29067;35.492;-97.520;2023-01-29T09:18:02;27;22;
43479;PMS5003;29067;35.492;-97.520;2023-01-29T09:20:30;31;26;
43479;PMS5003;29067;35.492;-97.520;2023-01-29T09:23:02;27;22;
43479;PMS5003;29067;35.492;-97.520;2023-01-29T09:25:31;20;19;
43479;PMS5003;29067;35.492;-97.520;2023-01-29T09:27:59;26;23;
43479;PMS5003;29067;35.492;-97.520;2023-01-29T09:30:34;27;20;
43479;PMS5003;29067;35.492;-97.520;2023-01-29T09:33:08;22;20;
43479;PMS5003;29067;35.492;-97.520;2023-01-29T09:35:38;24;21;
43479;PMS5003;29067;35.492;-97.520;2023-01-29T09:38:07;28;23;
43479;PMS5003;29067;35.492;-97.520;2023-01-29T09:40:40;22;19;
43479;PMS5003;29067;35.492;-97.520;2023-01-29T09:43:18;23;21;
43479;PMS5003;29067;35.492;-97.520;2023-01-29T09:45:52;22;21;
43479;PMS5003;29067;35.492;-97.520;2023-01-29T09:48:25;21;21;
43479;PMS5003;29067;35.492;-97.520;2023-01-29T09:50:56;19;19;
43479;PMS5003;29067;35.492;-97.520;2023-01-29T09:53:29;18;18;
43479;PMS5003;29067;35.492;-97.520;2023-01-29T09:56:07;18;15;
43479;PMS5003;29067;35.492;-97.520;2023-01-29T09:58:40;18;15;
43479;PMS5003;29067;35.492;-97.520;2023-01-29T10:01:12;17;17;
43479;PMS5003;29067;35.492;-97.520;2023-01-29T10:03:52;20;18;
43479;PMS5003;29067;35.492;-97.520;2023-01-29T10:06:33;18;18;
43479;PMS5003;29067;35.492;-97.520;2023-01-29T10:10:22;22;17;
43479;PMS5003;29067;35.492;-97.520;2023-01-29T10:12:59;21;17;
43479;PMS5003;29067;35.492;-97.520;2023-01-29T10:15:36;19;18;
43479;PMS5003;29067;35.492;-97.520;2023-01-29T10:18:42;27;18;
43479;PMS5003;29067;35.492;-97.520;2023-01-29T10:21:27;20;20;
43479;PMS5003;29067;35.492;-97.520;2023-01-29T10:24:11;21;20;
43479;PMS5003;29067;35.492;-97.520;2023-01-29T10:26:49;17;15;
43479;PMS5003;29067;35.492;-97.520;2023-01-29T10:29:19;18;17;
43479;PMS5003;29067;35.492;-97.520;2023-01-29T10:31:48;18;18;
43479;PMS5003;29067;35.492;-97.520;2023-01-29T10:34:22;20;17;
43479;PMS5003;29067;35.492;-97.520;2023-01-29T10:37:07;17;17;
43479;PMS5003;29067;35.492;-97.520;2023-01-29T10:39:43;22;20;
43479;PMS5003;29067;35.492;-97.520;2023-01-29T10:42:21;17;15;
43479;PMS5003;29067;35.492;-97.520;2023-01-29T10:45:01;24;21;
43479;PMS5003;29067;35.492;-97.520;2023-01-29T10:47:46;21;17;
43479;PMS5003;29067;35.492;-97.520;2023-01-29T10:50:33;18;18;
43479;PMS5003;29067;35.492;-97.520;2023-01-29T10:53:17;17;15;
43479;PMS5003;29067;35.492;-97.520;2023-01-29T10:56:01;14;10;
43479;PMS5003;29067;35.492;-97.520;2023-01-29T10:58:42;15;14;
43479;PMS5003;29067;35.492;-97.520;2023-01-29T11:01:19;15;14;
43479;PMS5003;29067;35.492;-97.520;2023-01-29T11:03:51;15;15;
43479;PMS5003;29067;35.492;-97.520;2023-01-29T11:06:25;20;15;
43479;PMS5003;29067;35.492;-97.520;2023-01-29T11:08:58;11;11;
43479;PMS5003;29067;35.492;-97.520;2023-01-29T11:11:39;15;12;
43479;PMS5003;29067;35.492;-97.520;2023-01-29T11:14:12;18;14;
43479;PMS5003;29067;35.492;-97.520;2023-01-29T11:16:47;13;11;
43479;PMS5003;29067;35.492;-97.520;2023-01-29T11:19:15;11;10;
43479;PMS5003;29067;35.492;-97.520;2023-01-29T11:21:54;14;13;
43479;PMS5003;29067;35.492;-97.520;2023-01-29T11:24:28;18;15;
43479;PMS5003;29067;35.492;-97.520;2023-01-29T11:26:58;13;13;
43479;PMS5003;29067;35.492;-97.520;2023-01-29T11:29:29;14;14;
43479;PMS5003;29067;35.492;-97.520;2023-01-29T11:32:03;13;10;
43479;PMS5003;29067;35.492;-97.520;2023-01-29T11:34:55;13;11;
43479;PMS5003;29067;35.492;-97.520;2023-01-29T11:37:31;18;14;
43479;PMS5003;29067;35.492;-97.520;2023-01-29T11:40:01;13;11;
43479;PMS5003;29067;35.492;-97.520;2023-01-29T11:42:55;13;10;
43479;PMS5003;29067;35.492;-97.520;2023-01-29T11:45:37;15;14;
43479;PMS5003;29067;35.492;-97.520;2023-01-29T11:48:11;14;11;
43479;PMS5003;29067;35.492;-97.520;2023-01-29T11:50:42;14;13;
43479;PMS5003;29067;35.492;-97.520;2023-01-29T11:53:20;14;11;
43479;PMS5003;29067;35.492;-97.520;2023-01-29T11:55:56;11;11;
43479;PMS5003;29067;35.492;-97.520;2023-01-29T11:58:31;10;10;
43479;PMS5003;29067;35.492;-97.520;2023-01-29T12:03:03;11;10;
43479;PMS5003;29067;35.492;-97.520;2023-01-29T12:05:41;11;11;
43479;PMS5003;29067;35.492;-97.520;2023-01-29T12:08:19;11;11;
43479;PMS5003;29067;35.492;-97.520;2023-01-29T12:10:48;15;13;
43479;PMS5003;29067;35.492;-97.520;2023-01-29T12:13:20;13;11;
43479;PMS5003;29067;35.492;-97.520;2023-01-29T12:16:04;13;11;
43479;PMS5003;29067;35.492;-97.520;2023-01-29T12:18:43;10;10;
43479;PMS5003;29067;35.492;-97.520;2023-01-29T12:21:18;13;13;
43479;PMS5003;29067;35.492;-97.520;2023-01-29T12:23:59;15;15;
43479;PMS5003;29067;35.492;-97.520;2023-01-29T12:26:33;17;14;
43479;PMS5003;29067;35.492;-97.520;2023-01-29T12:29:19;10;10;
43479;PMS5003;29067;35.492;-97.520;2023-01-29T12:31:56;14;13;
43479;PMS5003;29067;35.492;-97.520;2023-01-29T12:34:36;14;13;
43479;PMS5003;29067;35.492;-97.520;2023-01-29T12:37:11;11;10;
43479;PMS5003;29067;35.492;-97.520;2023-01-29T12:39:48;13;11;
43479;PMS5003;29067;35.492;-97.520;2023-01-29T12:42:23;13;11;
43479;PMS5003;29067;35.492;-97.520;2023-01-29T12:44:53;13;11;
43479;PMS5003;29067;35.492;-97.520;2023-01-29T12:47:25;10;10;
43479;PMS5003;29067;35.492;-97.520;2023-01-29T12:49:59;10;8;
43479;PMS5003;29067;35.492;-97.520;2023-01-29T12:52:37;16;11;
43479;PMS5003;29067;35.492;-97.520;2023-01-29T12:55:15;14;13;
43479;PMS5003;29067;35.492;-97.520;2023-01-29T12:57:47;11;11;
43479;PMS5003;29067;35.492;-97.520;2023-01-29T13:00:27;14;14;
43479;PMS5003;29067;35.492;-97.520;2023-01-29T13:02:59;17;16;
43479;PMS5003;29067;35.492;-97.520;2023-01-29T13:05:37;13;11;
43479;PMS5003;29067;35.492;-97.520;2023-01-29T13:08:10;13;11;
43479;PMS5003;29067;35.492;-97.520;2023-01-29T13:10:45;16;13;
43479;PMS5003;29067;35.492;-97.520;2023-01-29T13:13:18;14;11;
43479;PMS5003;29067;35.492;-97.520;2023-01-29T13:15:53;13;10;
43479;PMS5003;29067;35.492;-97.520;2023-01-29T13:18:30;11;10;
43479;PMS5003;29067;35.492;-97.520;2023-01-29T13:21:06;13;13;
43479;PMS5003;29067;35.492;-97.520;2023-01-29T13:23:40;13;10;
43479;PMS5003;29067;35.492;-97.520;2023-01-29T13:26:16;10;10;
43479;PMS5003;29067;35.492;-97.520;2023-01-29T13:28:45;10;10;
43479;PMS5003;29067;35.492;-97.520;2023-01-29T13:31:19;16;14;
43479;PMS5003;29067;35.492;-97.520;2023-01-29T13:33:57;11;10;
43479;PMS5003;29067;35.492;-97.520;2023-01-29T13:36:30;14;13;
43479;PMS5003;29067;35.492;-97.520;2023-01-29T13:39:00;11;11;
43479;PMS5003;29067;35.492;-97.520;2023-01-29T13:41:32;17;13;
43479;PMS5003;29067;35.492;-97.520;2023-01-29T13:44:08;13;11;
43479;PMS5003;29067;35.492;-97.520;2023-01-29T13:46:48;14;11;
43479;PMS5003;29067;35.492;-97.520;2023-01-29T13:49:28;19;11;
43479;PMS5003;29067;35.492;-97.520;2023-01-29T13:52:13;11;11;
43479;PMS5003;29067;35.492;-97.520;2023-01-29T13:54:51;22;13;
43479;PMS5003;29067;35.492;-97.520;2023-01-29T13:57:55;14;11;
43479;PMS5003;29067;35.492;-97.520;2023-01-29T14:00:47;11;11;
43479;PMS5003;29067;35.492;-97.520;2023-01-29T14:03:32;13;11;
43479;PMS5003;29067;35.492;-97.520;2023-01-29T14:06:08;16;14;
43479;PMS5003;29067;35.492;-97.520;2023-01-29T14:09:28;13;10;
43479;PMS5003;29067;35.492;-97.520;2023-01-29T14:13:24;18;12;
43479;PMS5003;29067;35.492;-97.520;2023-01-29T14:16:25;16;14;
43479;PMS5003;29067;35.492;-97.520;2023-01-29T14:19:01;13;10;
43479;PMS5003;29067;35.492;-97.520;2023-01-29T14:21:31;12;10;
43479;PMS5003;29067;35.492;-97.520;2023-01-29T14:24:08;12;10;
43479;PMS5003;29067;35.492;-97.520;2023-01-29T14:26:43;15;12;
43479;PMS5003;29067;35.492;-97.520;2023-01-29T14:29:16;15;13;
43479;PMS5003;29067;35.492;-97.520;2023-01-29T14:31:48;15;13;
43479;PMS5003;29067;35.492;-97.520;2023-01-29T14:34:22;10;10;
43479;PMS5003;29067;35.492;-97.520;2023-01-29T14:36:55;16;12;
43479;PMS5003;29067;35.492;-97.520;2023-01-29T14:39:31;13;13;
43479;PMS5003;29067;35.492;-97.520;2023-01-29T14:42:04;12;12;
43479;PMS5003;29067;35.492;-97.520;2023-01-29T14:44:59;19;15;
43479;PMS5003;29067;35.492;-97.520;2023-01-29T14:47:53;15;13;
43479;PMS5003;29067;35.492;-97.520;2023-01-29T14:50:46;12;10;
43479;PMS5003;29067;35.492;-97.520;2023-01-29T14:53:19;16;14;
43479;PMS5003;29067;35.492;-97.520;2023-01-29T14:55:54;15;12;
43479;PMS5003;29067;35.492;-97.520;2023-01-29T14:58:32;13;10;
43479;PMS5003;29067;35.492;-97.520;2023-01-29T15:01:05;12;10;
43479;PMS5003;29067;35.492;-97.520;2023-01-29T15:03:42;12;10;
43479;PMS5003;29067;35.492;-97.520;2023-01-29T15:06:14;16;16;
43479;PMS5003;29067;35.492;-97.520;2023-01-29T15:08:47;15;13;
43479;PMS5003;29067;35.492;-97.520;2023-01-29T15:11:24;10;9;
43479;PMS5003;29067;35.492;-97.520;2023-01-29T15:14:01;16;15;
43479;PMS5003;29067;35.492;-97.520;2023-01-29T15:16:43;16;13;
43479;PMS5003;29067;35.492;-97.520;2023-01-29T15:19:19;17;13;
43479;PMS5003;29067;35.492;-97.520;2023-01-29T15:22:01;14;13;
43479;PMS5003;29067;35.492;-97.520;2023-01-29T15:24:32;14;14;
43479;PMS5003;29067;35.492;-97.520;2023-01-29T15:27:00;13;13;
43479;PMS5003;29067;35.492;-97.520;2023-01-29T15:29:29;13;11;
43479;PMS5003;29067;35.492;-97.520;2023-01-29T15:31:58;12;12;
43479;PMS5003;29067;35.492;-97.520;2023-01-29T15:34:28;13;11;
43479;PMS5003;29067;35.492;-97.520;2023-01-29T15:36:57;16;13;
43479;PMS5003;29067;35.492;-97.520;2023-01-29T15:39:25;17;14;
43479;PMS5003;29067;35.492;-97.520;2023-01-29T15:42:26;11;11;
43479;PMS5003;29067;35.492;-97.520;2023-01-29T15:45:18;11;10;
43479;PMS5003;29067;35.492;-97.520;2023-01-29T15:47:48;16;14;
43479;PMS5003;29067;35.492;-97.520;2023-01-29T15:50:24;13;10;
43479;PMS5003;29067;35.492;-97.520;2023-01-29T15:52:53;14;14;
43479;PMS5003;29067;35.492;-97.520;2023-01-29T15:55:23;13;10;
43479;PMS5003;29067;35.492;-97.520;2023-01-29T22:33:47;12;12;
43479;PMS5003;29067;35.492;-97.520;2023-01-29T22:36:15;9;9;
43479;PMS5003;29067;35.492;-97.520;2023-01-29T22:38:43;9;9;
43479;PMS5003;29067;35.492;-97.520;2023-01-29T22:41:18;10;9;
43479;PMS5003;29067;35.492;-97.520;2023-01-29T22:43:46;15;15;
43479;PMS5003;29067;35.492;-97.520;2023-01-29T22:46:14;10;9;
43479;PMS5003;29067;35.492;-97.520;2023-01-29T22:48:43;10;7;
43479;PMS5003;29067;35.492;-97.520;2023-01-29T22:51:11;7;7;
43479;PMS5003;29067;35.492;-97.520;2023-01-29T22:53:40;6;6;
43479;PMS5003;29067;35.492;-97.520;2023-01-29T22:56:10;8;8;
43479;PMS5003;29067;35.492;-97.520;2023-01-29T22:58:38;8;7;
43479;PMS5003;29067;35.492;-97.520;2023-01-29T23:01:08;4;4;
43479;PMS5003;29067;35.492;-97.520;2023-01-29T23:03:36;5;5;
43479;PMS5003;29067;35.492;-97.520;2023-01-29T23:06:05;10;7;
43479;PMS5003;29067;35.492;-97.520;2023-01-29T23:08:33;9;7;
43479;PMS5003;29067;35.492;-97.520;2023-01-29T23:11:02;7;6;
43479;PMS5003;29067;35.492;-97.520;2023-01-29T23:13:31;5;5;
43479;PMS5003;29067;35.492;-97.520;2023-01-29T23:16:04;7;5;